Afton, Virginia
Current Conditions -  °F | °C
As of 10:55 AM on Tuesday 21 Oct 2014 (Local Time) from KW13 Reporting Station
Clear Clear  
Wind Chill: 60°   Ceiling: Unl
Heat Index: 60°   Visibility: 10mi
Dew Point: 47°   Wind: 3mph
Humidity: 62%   Direction: 240°WSW
Pressure: 29.89"   Gusts: NA
Location:  38°N, 78.78°W
Report Text: KW13 211455Z AUTO 24003KT 10SM CLR 15/08 A2989 RMK AO1 T01540082
Loading
Personal Weather Stations






























Interactive Weather Map
Tropical Storm Tracking
New forecast layout! Learn more

10-Day Weather Forecast

Advertisements
Track Severe Weather on mobile